Terminal Aerodrome Forecast
Issued by NWS

Home | Current Version | Previous Version | Graphics & Text | Print | Product List | Glossary On
Versions: 1 2 3 4 5 6 7 8 9 10 11 12 13 14 15 16
000
FTUS43 KBIS 131700
TAFMOT
TAF
KMOT 131723Z 1318/1418 32017G23KT P6SM BKN030
      TEMPO 1318/1320 -SHSN
     FM140100 33010KT P6SM SCT035
     FM140600 30010KT P6SM VCSH BKN030
     FM141200 31010KT P6SM BKN018
     FM141500 31010KT P6SM FEW040=

USA.gov is the U.S. government's official web portal to all federal, state and local government web resources and services.